sensor_id;sensor_type;location;lat;lon;timestamp;P1;durP1;ratioP1;P2;durP2;ratioP2
8626;SDS011;4351;51.422;6.794;2024-01-25T00:01:26;33.23;;;7.30;;
8626;SDS011;4351;51.422;6.794;2024-01-25T00:03:54;36.97;;;7.53;;
8626;SDS011;4351;51.422;6.794;2024-01-25T00:06:22;39.20;;;7.00;;
8626;SDS011;4351;51.422;6.794;2024-01-25T00:08:49;33.30;;;6.37;;
8626;SDS011;4351;51.422;6.794;2024-01-25T00:11:17;32.70;;;6.37;;
8626;SDS011;4351;51.422;6.794;2024-01-25T00:13:46;34.17;;;7.00;;
8626;SDS011;4351;51.422;6.794;2024-01-25T00:16:13;34.57;;;6.03;;
8626;SDS011;4351;51.422;6.794;2024-01-25T00:18:41;34.13;;;6.33;;
8626;SDS011;4351;51.422;6.794;2024-01-25T00:21:09;33.53;;;6.57;;
8626;SDS011;4351;51.422;6.794;2024-01-25T00:23:36;37.30;;;6.73;;
8626;SDS011;4351;51.422;6.794;2024-01-25T00:26:04;34.53;;;6.33;;
8626;SDS011;4351;51.422;6.794;2024-01-25T00:28:32;30.47;;;6.30;;
8626;SDS011;4351;51.422;6.794;2024-01-25T00:31:01;31.73;;;6.53;;
8626;SDS011;4351;51.422;6.794;2024-01-25T00:33:29;32.67;;;6.90;;
8626;SDS011;4351;51.422;6.794;2024-01-25T00:35:57;28.67;;;6.17;;
8626;SDS011;4351;51.422;6.794;2024-01-25T00:38:25;34.03;;;5.93;;
8626;SDS011;4351;51.422;6.794;2024-01-25T00:40:54;31.67;;;6.13;;
8626;SDS011;4351;51.422;6.794;2024-01-25T00:43:22;35.20;;;6.83;;
8626;SDS011;4351;51.422;6.794;2024-01-25T00:45:50;31.53;;;6.00;;
8626;SDS011;4351;51.422;6.794;2024-01-25T00:48:20;30.90;;;6.33;;
8626;SDS011;4351;51.422;6.794;2024-01-25T00:50:48;28.03;;;6.03;;
8626;SDS011;4351;51.422;6.794;2024-01-25T00:53:16;30.67;;;5.97;;
8626;SDS011;4351;51.422;6.794;2024-01-25T00:55:44;36.10;;;7.43;;
8626;SDS011;4351;51.422;6.794;2024-01-25T00:58:12;27.87;;;5.30;;
8626;SDS011;4351;51.422;6.794;2024-01-25T01:00:40;44.23;;;6.57;;
8626;SDS011;4351;51.422;6.794;2024-01-25T01:03:09;29.63;;;5.47;;
8626;SDS011;4351;51.422;6.794;2024-01-25T01:05:39;32.07;;;5.63;;
8626;SDS011;4351;51.422;6.794;2024-01-25T01:08:07;37.23;;;6.40;;
8626;SDS011;4351;51.422;6.794;2024-01-25T01:10:35;28.47;;;5.97;;
8626;SDS011;4351;51.422;6.794;2024-01-25T01:13:03;38.93;;;7.00;;
8626;SDS011;4351;51.422;6.794;2024-01-25T01:15:31;24.87;;;6.10;;
8626;SDS011;4351;51.422;6.794;2024-01-25T01:17:59;25.70;;;6.83;;
8626;SDS011;4351;51.422;6.794;2024-01-25T01:20:27;34.33;;;5.97;;
8626;SDS011;4351;51.422;6.794;2024-01-25T01:22:56;30.43;;;6.37;;
8626;SDS011;4351;51.422;6.794;2024-01-25T01:25:24;27.63;;;6.10;;
8626;SDS011;4351;51.422;6.794;2024-01-25T01:27:52;35.93;;;6.53;;
8626;SDS011;4351;51.422;6.794;2024-01-25T01:30:20;23.73;;;5.83;;
8626;SDS011;4351;51.422;6.794;2024-01-25T01:32:48;33.10;;;6.50;;
8626;SDS011;4351;51.422;6.794;2024-01-25T01:35:15;32.53;;;5.63;;
8626;SDS011;4351;51.422;6.794;2024-01-25T01:37:43;36.87;;;6.40;;
8626;SDS011;4351;51.422;6.794;2024-01-25T01:40:12;31.60;;;6.13;;
8626;SDS011;4351;51.422;6.794;2024-01-25T01:42:40;35.00;;;6.00;;
8626;SDS011;4351;51.422;6.794;2024-01-25T01:45:09;31.13;;;5.77;;
8626;SDS011;4351;51.422;6.794;2024-01-25T01:47:38;29.23;;;6.33;;
8626;SDS011;4351;51.422;6.794;2024-01-25T01:50:07;24.23;;;5.37;;
8626;SDS011;4351;51.422;6.794;2024-01-25T01:52:36;29.43;;;6.07;;
8626;SDS011;4351;51.422;6.794;2024-01-25T01:55:04;33.87;;;6.00;;
8626;SDS011;4351;51.422;6.794;2024-01-25T01:57:33;29.97;;;6.03;;
8626;SDS011;4351;51.422;6.794;2024-01-25T02:00:02;35.73;;;6.13;;
8626;SDS011;4351;51.422;6.794;2024-01-25T02:02:36;31.27;;;6.50;;
8626;SDS011;4351;51.422;6.794;2024-01-25T02:05:04;24.07;;;5.37;;
8626;SDS011;4351;51.422;6.794;2024-01-25T02:07:33;33.07;;;5.80;;
8626;SDS011;4351;51.422;6.794;2024-01-25T02:10:00;34.27;;;6.03;;
8626;SDS011;4351;51.422;6.794;2024-01-25T02:12:28;26.77;;;5.60;;
8626;SDS011;4351;51.422;6.794;2024-01-25T02:14:57;24.50;;;5.77;;
8626;SDS011;4351;51.422;6.794;2024-01-25T02:17:25;31.47;;;6.20;;
8626;SDS011;4351;51.422;6.794;2024-01-25T02:19:53;28.00;;;6.23;;
8626;SDS011;4351;51.422;6.794;2024-01-25T02:22:22;39.77;;;6.33;;
8626;SDS011;4351;51.422;6.794;2024-01-25T02:24:51;33.40;;;5.33;;
8626;SDS011;4351;51.422;6.794;2024-01-25T02:27:20;29.33;;;5.77;;
8626;SDS011;4351;51.422;6.794;2024-01-25T02:29:48;34.07;;;6.33;;
8626;SDS011;4351;51.422;6.794;2024-01-25T02:32:16;26.83;;;5.07;;
8626;SDS011;4351;51.422;6.794;2024-01-25T02:34:44;23.87;;;5.23;;
8626;SDS011;4351;51.422;6.794;2024-01-25T02:37:12;30.20;;;5.93;;
8626;SDS011;4351;51.422;6.794;2024-01-25T02:39:42;32.63;;;5.90;;
8626;SDS011;4351;51.422;6.794;2024-01-25T02:42:10;32.00;;;5.57;;
8626;SDS011;4351;51.422;6.794;2024-01-25T02:44:38;24.63;;;5.57;;
8626;SDS011;4351;51.422;6.794;2024-01-25T02:47:06;27.67;;;5.27;;
8626;SDS011;4351;51.422;6.794;2024-01-25T02:49:34;28.20;;;5.43;;
8626;SDS011;4351;51.422;6.794;2024-01-25T02:52:02;24.33;;;4.90;;
8626;SDS011;4351;51.422;6.794;2024-01-25T02:54:30;36.23;;;6.17;;
8626;SDS011;4351;51.422;6.794;2024-01-25T02:57:04;27.43;;;5.73;;
8626;SDS011;4351;51.422;6.794;2024-01-25T02:59:32;34.87;;;5.67;;
8626;SDS011;4351;51.422;6.794;2024-01-25T03:02:00;25.40;;;5.57;;
8626;SDS011;4351;51.422;6.794;2024-01-25T03:04:28;30.43;;;5.70;;
8626;SDS011;4351;51.422;6.794;2024-01-25T03:06:56;22.60;;;5.60;;
8626;SDS011;4351;51.422;6.794;2024-01-25T03:09:24;30.83;;;5.93;;
8626;SDS011;4351;51.422;6.794;2024-01-25T03:11:51;31.33;;;5.47;;
8626;SDS011;4351;51.422;6.794;2024-01-25T03:14:20;24.87;;;5.33;;
8626;SDS011;4351;51.422;6.794;2024-01-25T03:16:48;26.67;;;4.77;;
8626;SDS011;4351;51.422;6.794;2024-01-25T03:19:16;28.60;;;5.10;;
8626;SDS011;4351;51.422;6.794;2024-01-25T03:21:44;26.97;;;5.13;;
8626;SDS011;4351;51.422;6.794;2024-01-25T03:24:12;31.67;;;5.60;;
8626;SDS011;4351;51.422;6.794;2024-01-25T03:26:40;26.07;;;5.80;;
8626;SDS011;4351;51.422;6.794;2024-01-25T03:29:07;26.27;;;5.70;;
8626;SDS011;4351;51.422;6.794;2024-01-25T03:31:36;30.30;;;6.17;;
8626;SDS011;4351;51.422;6.794;2024-01-25T03:34:05;30.83;;;5.37;;
8626;SDS011;4351;51.422;6.794;2024-01-25T03:36:33;26.33;;;4.90;;
8626;SDS011;4351;51.422;6.794;2024-01-25T03:39:02;30.30;;;5.73;;
8626;SDS011;4351;51.422;6.794;2024-01-25T03:41:30;28.07;;;5.63;;
8626;SDS011;4351;51.422;6.794;2024-01-25T03:43:58;29.60;;;4.77;;
8626;SDS011;4351;51.422;6.794;2024-01-25T03:46:26;22.60;;;4.60;;
8626;SDS011;4351;51.422;6.794;2024-01-25T03:48:56;25.63;;;5.60;;
8626;SDS011;4351;51.422;6.794;2024-01-25T03:51:24;30.43;;;5.90;;
8626;SDS011;4351;51.422;6.794;2024-01-25T03:53:53;29.33;;;5.37;;
8626;SDS011;4351;51.422;6.794;2024-01-25T03:56:21;26.10;;;5.70;;
8626;SDS011;4351;51.422;6.794;2024-01-25T03:58:49;21.80;;;4.60;;
8626;SDS011;4351;51.422;6.794;2024-01-25T04:01:18;26.80;;;5.50;;
8626;SDS011;4351;51.422;6.794;2024-01-25T04:03:45;29.80;;;5.43;;
8626;SDS011;4351;51.422;6.794;2024-01-25T04:06:15;29.30;;;5.23;;
8626;SDS011;4351;51.422;6.794;2024-01-25T04:08:43;27.80;;;5.47;;
8626;SDS011;4351;51.422;6.794;2024-01-25T04:11:11;25.73;;;4.53;;
8626;SDS011;4351;51.422;6.794;2024-01-25T04:13:40;26.30;;;4.87;;
8626;SDS011;4351;51.422;6.794;2024-01-25T04:16:13;27.97;;;5.77;;
8626;SDS011;4351;51.422;6.794;2024-01-25T04:18:41;25.57;;;5.30;;
8626;SDS011;4351;51.422;6.794;2024-01-25T04:21:09;29.87;;;5.50;;
8626;SDS011;4351;51.422;6.794;2024-01-25T04:23:38;22.73;;;5.37;;
8626;SDS011;4351;51.422;6.794;2024-01-25T04:26:05;32.37;;;5.57;;
8626;SDS011;4351;51.422;6.794;2024-01-25T04:28:33;29.17;;;4.80;;
8626;SDS011;4351;51.422;6.794;2024-01-25T04:31:02;29.73;;;4.70;;
8626;SDS011;4351;51.422;6.794;2024-01-25T04:33:30;28.00;;;5.30;;
8626;SDS011;4351;51.422;6.794;2024-01-25T04:35:58;28.97;;;5.43;;
8626;SDS011;4351;51.422;6.794;2024-01-25T04:38:26;25.13;;;4.90;;
8626;SDS011;4351;51.422;6.794;2024-01-25T04:40:55;31.03;;;5.53;;
8626;SDS011;4351;51.422;6.794;2024-01-25T04:43:23;31.73;;;5.20;;
8626;SDS011;4351;51.422;6.794;2024-01-25T04:45:50;33.87;;;5.37;;
8626;SDS011;4351;51.422;6.794;2024-01-25T04:48:18;29.97;;;5.27;;
8626;SDS011;4351;51.422;6.794;2024-01-25T04:50:46;27.67;;;5.03;;
8626;SDS011;4351;51.422;6.794;2024-01-25T04:53:14;32.03;;;5.83;;
8626;SDS011;4351;51.422;6.794;2024-01-25T04:55:42;30.90;;;5.53;;
8626;SDS011;4351;51.422;6.794;2024-01-25T04:58:11;26.87;;;5.10;;
8626;SDS011;4351;51.422;6.794;2024-01-25T05:00:39;24.97;;;5.30;;
8626;SDS011;4351;51.422;6.794;2024-01-25T05:03:06;30.27;;;5.07;;
8626;SDS011;4351;51.422;6.794;2024-01-25T05:05:34;25.73;;;4.80;;
8626;SDS011;4351;51.422;6.794;2024-01-25T05:08:02;27.30;;;5.10;;
8626;SDS011;4351;51.422;6.794;2024-01-25T05:10:30;29.93;;;5.23;;
8626;SDS011;4351;51.422;6.794;2024-01-25T05:12:58;26.00;;;5.53;;
8626;SDS011;4351;51.422;6.794;2024-01-25T05:15:28;22.90;;;4.53;;
8626;SDS011;4351;51.422;6.794;2024-01-25T05:17:56;27.87;;;6.10;;
8626;SDS011;4351;51.422;6.794;2024-01-25T05:20:23;27.87;;;5.03;;
8626;SDS011;4351;51.422;6.794;2024-01-25T05:22:58;24.93;;;5.10;;
8626;SDS011;4351;51.422;6.794;2024-01-25T05:25:26;27.53;;;5.00;;
8626;SDS011;4351;51.422;6.794;2024-01-25T05:27:54;28.07;;;5.30;;
8626;SDS011;4351;51.422;6.794;2024-01-25T05:30:22;20.63;;;4.80;;
8626;SDS011;4351;51.422;6.794;2024-01-25T05:32:51;29.93;;;5.53;;
8626;SDS011;4351;51.422;6.794;2024-01-25T05:35:20;30.10;;;5.60;;
8626;SDS011;4351;51.422;6.794;2024-01-25T05:37:50;29.43;;;5.43;;
8626;SDS011;4351;51.422;6.794;2024-01-25T05:40:18;28.33;;;5.53;;
8626;SDS011;4351;51.422;6.794;2024-01-25T05:42:45;30.70;;;5.43;;
8626;SDS011;4351;51.422;6.794;2024-01-25T05:45:14;29.33;;;5.27;;
8626;SDS011;4351;51.422;6.794;2024-01-25T05:47:42;27.60;;;5.50;;
8626;SDS011;4351;51.422;6.794;2024-01-25T05:50:11;31.40;;;5.83;;
8626;SDS011;4351;51.422;6.794;2024-01-25T05:52:39;27.27;;;5.43;;
8626;SDS011;4351;51.422;6.794;2024-01-25T05:55:07;23.03;;;4.80;;
8626;SDS011;4351;51.422;6.794;2024-01-25T05:57:35;26.40;;;5.03;;
8626;SDS011;4351;51.422;6.794;2024-01-25T06:00:03;22.33;;;4.70;;
8626;SDS011;4351;51.422;6.794;2024-01-25T06:02:35;27.70;;;5.77;;
8626;SDS011;4351;51.422;6.794;2024-01-25T06:05:03;31.13;;;5.93;;
8626;SDS011;4351;51.422;6.794;2024-01-25T06:07:33;22.63;;;4.90;;
8626;SDS011;4351;51.422;6.794;2024-01-25T06:10:01;23.63;;;5.50;;
8626;SDS011;4351;51.422;6.794;2024-01-25T06:12:30;28.13;;;5.50;;
8626;SDS011;4351;51.422;6.794;2024-01-25T06:14:58;26.10;;;5.90;;
8626;SDS011;4351;51.422;6.794;2024-01-25T06:17:25;22.53;;;5.73;;
8626;SDS011;4351;51.422;6.794;2024-01-25T06:19:53;27.97;;;6.20;;
8626;SDS011;4351;51.422;6.794;2024-01-25T06:22:21;22.87;;;5.27;;
8626;SDS011;4351;51.422;6.794;2024-01-25T06:24:50;23.83;;;5.83;;
8626;SDS011;4351;51.422;6.794;2024-01-25T06:27:18;28.10;;;5.33;;
8626;SDS011;4351;51.422;6.794;2024-01-25T06:29:46;28.37;;;6.10;;
8626;SDS011;4351;51.422;6.794;2024-01-25T06:32:13;33.57;;;5.97;;
8626;SDS011;4351;51.422;6.794;2024-01-25T06:34:51;25.40;;;5.33;;
8626;SDS011;4351;51.422;6.794;2024-01-25T06:37:20;30.20;;;5.30;;
8626;SDS011;4351;51.422;6.794;2024-01-25T06:39:48;21.80;;;5.67;;
8626;SDS011;4351;51.422;6.794;2024-01-25T06:42:17;23.13;;;5.77;;
8626;SDS011;4351;51.422;6.794;2024-01-25T06:44:45;28.67;;;6.07;;
8626;SDS011;4351;51.422;6.794;2024-01-25T06:47:13;26.90;;;5.70;;
8626;SDS011;4351;51.422;6.794;2024-01-25T06:49:41;24.63;;;5.57;;
8626;SDS011;4351;51.422;6.794;2024-01-25T06:52:09;29.80;;;6.53;;
8626;SDS011;4351;51.422;6.794;2024-01-25T06:54:38;25.10;;;5.40;;
8626;SDS011;4351;51.422;6.794;2024-01-25T06:57:06;30.07;;;6.63;;
8626;SDS011;4351;51.422;6.794;2024-01-25T06:59:35;29.03;;;6.37;;
8626;SDS011;4351;51.422;6.794;2024-01-25T07:02:03;28.30;;;6.40;;
8626;SDS011;4351;51.422;6.794;2024-01-25T07:04:31;28.27;;;6.17;;
8626;SDS011;4351;51.422;6.794;2024-01-25T07:07:00;25.43;;;6.07;;
8626;SDS011;4351;51.422;6.794;2024-01-25T07:09:29;29.03;;;5.70;;
8626;SDS011;4351;51.422;6.794;2024-01-25T07:11:57;28.30;;;5.93;;
8626;SDS011;4351;51.422;6.794;2024-01-25T07:14:25;33.33;;;6.60;;
8626;SDS011;4351;51.422;6.794;2024-01-25T07:16:54;33.20;;;6.47;;
8626;SDS011;4351;51.422;6.794;2024-01-25T07:19:22;29.10;;;6.40;;
8626;SDS011;4351;51.422;6.794;2024-01-25T07:21:51;23.57;;;5.67;;
8626;SDS011;4351;51.422;6.794;2024-01-25T07:24:19;29.60;;;7.00;;
8626;SDS011;4351;51.422;6.794;2024-01-25T07:26:46;31.40;;;5.77;;
8626;SDS011;4351;51.422;6.794;2024-01-25T07:29:15;27.10;;;6.00;;
8626;SDS011;4351;51.422;6.794;2024-01-25T07:31:42;29.57;;;6.40;;
8626;SDS011;4351;51.422;6.794;2024-01-25T07:34:11;29.53;;;6.73;;
8626;SDS011;4351;51.422;6.794;2024-01-25T07:36:39;27.60;;;6.07;;
8626;SDS011;4351;51.422;6.794;2024-01-25T07:39:07;28.77;;;5.93;;
8626;SDS011;4351;51.422;6.794;2024-01-25T07:41:37;29.90;;;7.53;;
8626;SDS011;4351;51.422;6.794;2024-01-25T07:44:05;24.77;;;6.43;;
8626;SDS011;4351;51.422;6.794;2024-01-25T07:46:32;22.63;;;6.13;;
8626;SDS011;4351;51.422;6.794;2024-01-25T07:49:00;24.73;;;6.60;;
8626;SDS011;4351;51.422;6.794;2024-01-25T07:51:30;22.23;;;6.27;;
8626;SDS011;4351;51.422;6.794;2024-01-25T07:53:57;30.10;;;6.63;;
8626;SDS011;4351;51.422;6.794;2024-01-25T07:56:25;31.10;;;6.90;;
8626;SDS011;4351;51.422;6.794;2024-01-25T07:58:53;30.13;;;7.13;;
8626;SDS011;4351;51.422;6.794;2024-01-25T08:01:20;33.73;;;7.27;;
8626;SDS011;4351;51.422;6.794;2024-01-25T08:03:48;29.97;;;6.77;;
8626;SDS011;4351;51.422;6.794;2024-01-25T08:06:16;28.17;;;6.23;;
8626;SDS011;4351;51.422;6.794;2024-01-25T08:08:45;39.57;;;7.03;;
8626;SDS011;4351;51.422;6.794;2024-01-25T08:11:13;26.60;;;6.93;;
8626;SDS011;4351;51.422;6.794;2024-01-25T08:13:44;25.60;;;6.73;;
8626;SDS011;4351;51.422;6.794;2024-01-25T08:16:13;29.73;;;6.93;;
8626;SDS011;4351;51.422;6.794;2024-01-25T08:18:46;27.97;;;6.27;;
8626;SDS011;4351;51.422;6.794;2024-01-25T08:21:14;37.97;;;8.13;;
8626;SDS011;4351;51.422;6.794;2024-01-25T08:23:42;33.80;;;7.67;;
8626;SDS011;4351;51.422;6.794;2024-01-25T08:26:11;34.13;;;6.50;;
8626;SDS011;4351;51.422;6.794;2024-01-25T08:28:40;35.07;;;6.83;;
8626;SDS011;4351;51.422;6.794;2024-01-25T08:31:08;26.70;;;6.70;;
8626;SDS011;4351;51.422;6.794;2024-01-25T08:33:35;38.80;;;8.07;;
8626;SDS011;4351;51.422;6.794;2024-01-25T08:36:03;35.93;;;7.27;;
8626;SDS011;4351;51.422;6.794;2024-01-25T08:38:31;30.50;;;8.17;;
8626;SDS011;4351;51.422;6.794;2024-01-25T08:40:59;34.87;;;6.97;;
8626;SDS011;4351;51.422;6.794;2024-01-25T08:43:29;31.07;;;6.93;;
8626;SDS011;4351;51.422;6.794;2024-01-25T08:45:57;29.70;;;6.83;;
8626;SDS011;4351;51.422;6.794;2024-01-25T08:48:24;28.33;;;7.37;;
8626;SDS011;4351;51.422;6.794;2024-01-25T08:50:52;34.90;;;7.00;;
8626;SDS011;4351;51.422;6.794;2024-01-25T08:53:21;30.43;;;7.20;;
8626;SDS011;4351;51.422;6.794;2024-01-25T08:55:53;38.00;;;8.07;;
8626;SDS011;4351;51.422;6.794;2024-01-25T08:58:21;32.03;;;7.50;;
8626;SDS011;4351;51.422;6.794;2024-01-25T09:00:51;34.37;;;7.30;;
8626;SDS011;4351;51.422;6.794;2024-01-25T09:03:19;33.90;;;7.80;;
8626;SDS011;4351;51.422;6.794;2024-01-25T09:05:47;31.07;;;7.50;;
8626;SDS011;4351;51.422;6.794;2024-01-25T09:08:15;32.63;;;7.50;;
8626;SDS011;4351;51.422;6.794;2024-01-25T09:10:43;34.40;;;8.10;;
8626;SDS011;4351;51.422;6.794;2024-01-25T09:13:11;36.27;;;8.13;;
8626;SDS011;4351;51.422;6.794;2024-01-25T09:15:39;38.37;;;8.47;;
8626;SDS011;4351;51.422;6.794;2024-01-25T09:18:08;31.07;;;7.97;;
8626;SDS011;4351;51.422;6.794;2024-01-25T09:20:36;32.77;;;7.47;;
8626;SDS011;4351;51.422;6.794;2024-01-25T09:23:04;34.73;;;7.53;;
8626;SDS011;4351;51.422;6.794;2024-01-25T09:25:32;28.73;;;6.93;;
8626;SDS011;4351;51.422;6.794;2024-01-25T09:28:00;34.10;;;8.30;;
8626;SDS011;4351;51.422;6.794;2024-01-25T09:30:29;32.10;;;7.70;;
8626;SDS011;4351;51.422;6.794;2024-01-25T09:32:56;32.73;;;8.27;;
8626;SDS011;4351;51.422;6.794;2024-01-25T09:35:26;29.50;;;8.37;;
8626;SDS011;4351;51.422;6.794;2024-01-25T09:37:54;31.77;;;8.13;;
8626;SDS011;4351;51.422;6.794;2024-01-25T09:40:22;37.73;;;8.47;;
8626;SDS011;4351;51.422;6.794;2024-01-25T09:42:51;38.93;;;8.90;;
8626;SDS011;4351;51.422;6.794;2024-01-25T09:45:20;43.30;;;11.13;;
8626;SDS011;4351;51.422;6.794;2024-01-25T09:47:48;29.70;;;8.43;;
8626;SDS011;4351;51.422;6.794;2024-01-25T09:50:17;35.63;;;8.70;;
8626;SDS011;4351;51.422;6.794;2024-01-25T09:52:49;32.00;;;9.70;;
8626;SDS011;4351;51.422;6.794;2024-01-25T09:55:18;37.17;;;8.70;;
8626;SDS011;4351;51.422;6.794;2024-01-25T09:57:48;35.03;;;10.10;;
8626;SDS011;4351;51.422;6.794;2024-01-25T10:00:17;33.67;;;9.53;;
8626;SDS011;4351;51.422;6.794;2024-01-25T10:02:44;35.67;;;9.63;;
8626;SDS011;4351;51.422;6.794;2024-01-25T10:05:12;37.37;;;10.03;;
8626;SDS011;4351;51.422;6.794;2024-01-25T10:07:41;40.17;;;10.00;;
8626;SDS011;4351;51.422;6.794;2024-01-25T10:10:12;40.47;;;10.30;;
8626;SDS011;4351;51.422;6.794;2024-01-25T10:12:40;37.60;;;9.20;;
8626;SDS011;4351;51.422;6.794;2024-01-25T10:15:09;42.53;;;10.67;;
8626;SDS011;4351;51.422;6.794;2024-01-25T10:17:38;44.40;;;11.47;;
8626;SDS011;4351;51.422;6.794;2024-01-25T10:20:26;40.63;;;10.97;;
8626;SDS011;4351;51.422;6.794;2024-01-25T10:22:58;44.27;;;14.87;;
8626;SDS011;4351;51.422;6.794;2024-01-25T10:25:29;36.23;;;12.57;;
8626;SDS011;4351;51.422;6.794;2024-01-25T10:27:57;46.77;;;15.33;;
8626;SDS011;4351;51.422;6.794;2024-01-25T10:30:25;47.53;;;16.63;;
8626;SDS011;4351;51.422;6.794;2024-01-25T10:32:55;46.60;;;16.97;;
8626;SDS011;4351;51.422;6.794;2024-01-25T10:35:23;42.60;;;15.30;;
8626;SDS011;4351;51.422;6.794;2024-01-25T10:37:53;45.43;;;15.63;;
8626;SDS011;4351;51.422;6.794;2024-01-25T10:40:21;40.90;;;15.13;;
8626;SDS011;4351;51.422;6.794;2024-01-25T10:42:51;47.03;;;15.07;;
8626;SDS011;4351;51.422;6.794;2024-01-25T10:45:19;41.47;;;15.37;;
8626;SDS011;4351;51.422;6.794;2024-01-25T10:47:48;48.10;;;15.97;;
8626;SDS011;4351;51.422;6.794;2024-01-25T10:50:16;46.97;;;18.00;;
8626;SDS011;4351;51.422;6.794;2024-01-25T10:52:45;41.87;;;14.90;;
8626;SDS011;4351;51.422;6.794;2024-01-25T10:55:14;42.47;;;15.57;;
8626;SDS011;4351;51.422;6.794;2024-01-25T10:57:43;41.30;;;15.40;;
8626;SDS011;4351;51.422;6.794;2024-01-25T11:00:14;44.93;;;15.87;;
8626;SDS011;4351;51.422;6.794;2024-01-25T11:02:43;51.97;;;17.07;;
8626;SDS011;4351;51.422;6.794;2024-01-25T11:05:12;39.57;;;15.90;;
8626;SDS011;4351;51.422;6.794;2024-01-25T11:07:40;56.90;;;17.13;;
8626;SDS011;4351;51.422;6.794;2024-01-25T11:10:10;47.97;;;15.97;;
8626;SDS011;4351;51.422;6.794;2024-01-25T11:12:46;42.93;;;16.07;;
8626;SDS011;4351;51.422;6.794;2024-01-25T11:15:19;45.13;;;16.67;;
8626;SDS011;4351;51.422;6.794;2024-01-25T11:17:50;53.87;;;17.20;;
8626;SDS011;4351;51.422;6.794;2024-01-25T11:20:19;42.90;;;16.30;;
8626;SDS011;4351;51.422;6.794;2024-01-25T11:22:47;45.57;;;16.80;;
8626;SDS011;4351;51.422;6.794;2024-01-25T11:25:19;49.80;;;19.13;;
8626;SDS011;4351;51.422;6.794;2024-01-25T11:27:47;53.27;;;18.20;;
8626;SDS011;4351;51.422;6.794;2024-01-25T11:30:18;47.43;;;17.53;;
8626;SDS011;4351;51.422;6.794;2024-01-25T11:32:46;44.97;;;16.73;;
8626;SDS011;4351;51.422;6.794;2024-01-25T11:35:15;47.40;;;17.77;;
8626;SDS011;4351;51.422;6.794;2024-01-25T11:37:45;43.77;;;16.53;;
8626;SDS011;4351;51.422;6.794;2024-01-25T11:40:13;48.60;;;17.97;;
8626;SDS011;4351;51.422;6.794;2024-01-25T11:42:42;48.83;;;17.40;;
8626;SDS011;4351;51.422;6.794;2024-01-25T11:45:11;44.30;;;16.17;;
8626;SDS011;4351;51.422;6.794;2024-01-25T11:47:41;48.73;;;15.20;;
8626;SDS011;4351;51.422;6.794;2024-01-25T11:50:09;54.87;;;16.30;;
8626;SDS011;4351;51.422;6.794;2024-01-25T11:52:38;48.27;;;14.37;;
8626;SDS011;4351;51.422;6.794;2024-01-25T11:55:06;46.20;;;14.23;;
8626;SDS011;4351;51.422;6.794;2024-01-25T11:57:35;46.97;;;13.93;;
8626;SDS011;4351;51.422;6.794;2024-01-25T12:00:03;40.23;;;12.67;;
8626;SDS011;4351;51.422;6.794;2024-01-25T12:02:33;38.97;;;12.80;;
8626;SDS011;4351;51.422;6.794;2024-01-25T12:05:03;48.27;;;12.37;;
8626;SDS011;4351;51.422;6.794;2024-01-25T12:07:31;45.57;;;12.50;;
8626;SDS011;4351;51.422;6.794;2024-01-25T12:10:01;43.77;;;12.50;;
8626;SDS011;4351;51.422;6.794;2024-01-25T12:12:29;47.47;;;11.60;;
8626;SDS011;4351;51.422;6.794;2024-01-25T12:14:57;43.17;;;12.37;;
8626;SDS011;4351;51.422;6.794;2024-01-25T12:17:26;47.30;;;12.47;;
8626;SDS011;4351;51.422;6.794;2024-01-25T12:19:54;44.80;;;11.60;;
8626;SDS011;4351;51.422;6.794;2024-01-25T12:22:23;44.93;;;11.80;;
8626;SDS011;4351;51.422;6.794;2024-01-25T12:24:53;48.50;;;14.20;;
8626;SDS011;4351;51.422;6.794;2024-01-25T12:27:27;43.27;;;12.23;;
8626;SDS011;4351;51.422;6.794;2024-01-25T12:29:55;44.30;;;14.20;;
8626;SDS011;4351;51.422;6.794;2024-01-25T12:32:22;43.40;;;12.80;;
8626;SDS011;4351;51.422;6.794;2024-01-25T12:34:53;45.77;;;13.93;;
8626;SDS011;4351;51.422;6.794;2024-01-25T12:37:22;44.47;;;13.60;;
8626;SDS011;4351;51.422;6.794;2024-01-25T12:39:52;44.87;;;13.23;;
8626;SDS011;4351;51.422;6.794;2024-01-25T12:42:20;43.73;;;13.27;;
8626;SDS011;4351;51.422;6.794;2024-01-25T12:44:50;46.13;;;13.93;;
8626;SDS011;4351;51.422;6.794;2024-01-25T12:47:18;39.67;;;14.47;;
8626;SDS011;4351;51.422;6.794;2024-01-25T12:49:46;54.63;;;15.53;;
8626;SDS011;4351;51.422;6.794;2024-01-25T12:52:14;48.33;;;14.87;;
8626;SDS011;4351;51.422;6.794;2024-01-25T12:54:43;44.03;;;14.50;;
8626;SDS011;4351;51.422;6.794;2024-01-25T12:57:12;49.60;;;14.70;;
8626;SDS011;4351;51.422;6.794;2024-01-25T12:59:40;48.03;;;15.87;;
8626;SDS011;4351;51.422;6.794;2024-01-25T13:02:08;44.43;;;15.70;;
8626;SDS011;4351;51.422;6.794;2024-01-25T13:04:37;42.07;;;14.60;;
8626;SDS011;4351;51.422;6.794;2024-01-25T13:07:05;43.70;;;15.07;;
8626;SDS011;4351;51.422;6.794;2024-01-25T13:09:33;46.70;;;15.50;;
8626;SDS011;4351;51.422;6.794;2024-01-25T13:12:03;46.30;;;16.00;;
8626;SDS011;4351;51.422;6.794;2024-01-25T13:14:33;48.30;;;16.23;;
8626;SDS011;4351;51.422;6.794;2024-01-25T13:17:01;53.90;;;16.50;;
8626;SDS011;4351;51.422;6.794;2024-01-25T13:19:28;49.50;;;16.20;;
8626;SDS011;4351;51.422;6.794;2024-01-25T13:21:56;51.73;;;15.87;;
8626;SDS011;4351;51.422;6.794;2024-01-25T13:24:24;50.20;;;16.23;;
8626;SDS011;4351;51.422;6.794;2024-01-25T13:26:52;49.27;;;16.40;;
8626;SDS011;4351;51.422;6.794;2024-01-25T13:29:20;50.07;;;16.43;;
8626;SDS011;4351;51.422;6.794;2024-01-25T13:31:49;47.03;;;16.27;;
8626;SDS011;4351;51.422;6.794;2024-01-25T13:34:17;45.77;;;15.43;;
8626;SDS011;4351;51.422;6.794;2024-01-25T13:36:45;53.77;;;17.03;;
8626;SDS011;4351;51.422;6.794;2024-01-25T13:39:12;45.03;;;16.10;;
8626;SDS011;4351;51.422;6.794;2024-01-25T13:41:40;53.53;;;16.77;;
8626;SDS011;4351;51.422;6.794;2024-01-25T13:44:08;49.07;;;16.80;;
8626;SDS011;4351;51.422;6.794;2024-01-25T13:46:36;51.10;;;17.13;;
8626;SDS011;4351;51.422;6.794;2024-01-25T13:49:05;50.03;;;16.03;;
8626;SDS011;4351;51.422;6.794;2024-01-25T13:51:33;50.40;;;16.80;;
8626;SDS011;4351;51.422;6.794;2024-01-25T13:54:01;47.60;;;16.47;;
8626;SDS011;4351;51.422;6.794;2024-01-25T13:56:28;58.20;;;16.80;;
8626;SDS011;4351;51.422;6.794;2024-01-25T13:58:56;48.83;;;15.90;;
8626;SDS011;4351;51.422;6.794;2024-01-25T14:01:23;54.17;;;17.37;;
8626;SDS011;4351;51.422;6.794;2024-01-25T14:03:51;52.93;;;15.97;;
8626;SDS011;4351;51.422;6.794;2024-01-25T14:06:21;48.80;;;16.47;;
8626;SDS011;4351;51.422;6.794;2024-01-25T14:08:50;56.50;;;15.57;;
8626;SDS011;4351;51.422;6.794;2024-01-25T14:11:18;50.70;;;16.53;;
8626;SDS011;4351;51.422;6.794;2024-01-25T14:13:46;49.47;;;15.93;;
8626;SDS011;4351;51.422;6.794;2024-01-25T14:16:14;47.77;;;15.73;;
8626;SDS011;4351;51.422;6.794;2024-01-25T14:18:44;51.37;;;16.73;;
8626;SDS011;4351;51.422;6.794;2024-01-25T14:21:12;51.23;;;15.33;;
8626;SDS011;4351;51.422;6.794;2024-01-25T14:23:43;41.47;;;14.97;;
8626;SDS011;4351;51.422;6.794;2024-01-25T14:26:12;56.77;;;16.93;;
8626;SDS011;4351;51.422;6.794;2024-01-25T14:28:39;45.20;;;15.80;;
8626;SDS011;4351;51.422;6.794;2024-01-25T14:31:07;43.93;;;15.27;;
8626;SDS011;4351;51.422;6.794;2024-01-25T14:33:35;45.67;;;15.40;;
8626;SDS011;4351;51.422;6.794;2024-01-25T14:36:07;44.53;;;15.00;;
8626;SDS011;4351;51.422;6.794;2024-01-25T14:38:34;42.30;;;15.03;;
8626;SDS011;4351;51.422;6.794;2024-01-25T14:41:04;47.13;;;13.90;;
8626;SDS011;4351;51.422;6.794;2024-01-25T14:43:35;41.07;;;13.63;;
8626;SDS011;4351;51.422;6.794;2024-01-25T14:46:03;43.40;;;14.60;;
8626;SDS011;4351;51.422;6.794;2024-01-25T14:48:31;42.77;;;13.20;;
8626;SDS011;4351;51.422;6.794;2024-01-25T14:50:59;50.90;;;14.90;;
8626;SDS011;4351;51.422;6.794;2024-01-25T14:53:27;37.30;;;12.63;;
8626;SDS011;4351;51.422;6.794;2024-01-25T14:55:55;40.50;;;13.63;;
8626;SDS011;4351;51.422;6.794;2024-01-25T14:58:24;43.77;;;14.40;;
8626;SDS011;4351;51.422;6.794;2024-01-25T15:00:52;38.67;;;13.43;;
8626;SDS011;4351;51.422;6.794;2024-01-25T15:03:20;46.90;;;14.50;;
8626;SDS011;4351;51.422;6.794;2024-01-25T15:05:48;40.53;;;12.83;;